createdAt,value
2017-10-03T00:00:22.930Z,80.00
2017-10-03T00:05:25.506Z,80.10
2017-10-03T00:10:28.055Z,80.70
2017-10-03T00:15:30.606Z,80.60
2017-10-03T00:20:33.183Z,80.80
2017-10-03T00:25:35.747Z,80.70
2017-10-03T00:30:38.324Z,80.40
2017-10-03T00:35:40.855Z,80.20
2017-10-03T00:40:43.401Z,80.40
2017-10-03T00:45:45.938Z,80.40
2017-10-03T00:50:48.502Z,80.00
2017-10-03T00:55:51.099Z,80.20
2017-10-03T01:00:53.651Z,80.20
2017-10-03T01:05:56.240Z,80.10
2017-10-03T01:10:58.794Z,80.30
2017-10-03T01:16:01.350Z,80.50
2017-10-03T01:21:03.962Z,81.00
2017-10-03T01:26:06.523Z,80.80
2017-10-03T01:31:09.087Z,80.10
2017-10-03T01:36:11.639Z,80.90
2017-10-03T01:41:14.200Z,81.00
2017-10-03T01:46:16.783Z,81.30
2017-10-03T01:51:19.358Z,80.70
2017-10-03T01:56:21.922Z,81.00
2017-10-03T02:01:24.498Z,81.30
2017-10-03T02:06:27.086Z,80.90
2017-10-03T02:11:29.713Z,80.90
2017-10-03T02:16:32.271Z,81.10
2017-10-03T02:21:34.829Z,81.40
2017-10-03T02:26:37.384Z,80.70
2017-10-03T02:31:39.943Z,81.40
2017-10-03T02:36:42.496Z,80.70
2017-10-03T02:41:45.042Z,80.50
2017-10-03T02:46:47.608Z,80.60
2017-10-03T02:51:50.178Z,80.40
2017-10-03T02:56:52.732Z,80.30
2017-10-03T03:01:55.346Z,80.20
2017-10-03T03:06:57.906Z,80.30
2017-10-03T03:12:01.249Z,80.60
2017-10-03T03:17:03.813Z,80.50
2017-10-03T03:22:06.383Z,80.70
2017-10-03T03:27:08.958Z,81.10
2017-10-03T03:32:11.518Z,81.20
2017-10-03T03:37:14.093Z,80.70
2017-10-03T03:42:16.662Z,80.70
2017-10-03T03:47:19.231Z,81.60
2017-10-03T03:52:21.821Z,81.20
2017-10-03T03:57:24.387Z,81.10
2017-10-03T04:02:26.951Z,81.30
2017-10-03T04:07:29.515Z,81.50
2017-10-03T04:12:32.118Z,81.30
2017-10-03T04:17:34.715Z,81.50
2017-10-03T04:22:37.275Z,82.10
2017-10-03T04:27:39.866Z,82.00
2017-10-03T04:32:42.430Z,81.70
2017-10-03T04:37:45.023Z,81.60
2017-10-03T04:42:48.386Z,82.20
2017-10-03T04:47:50.943Z,82.20
2017-10-03T04:52:53.485Z,81.80
2017-10-03T04:57:56.854Z,82.10
2017-10-03T05:02:59.454Z,82.10
2017-10-03T05:08:02.002Z,82.80
2017-10-03T05:13:04.555Z,82.90
2017-10-03T05:18:07.151Z,82.70
2017-10-03T05:23:09.696Z,82.80
2017-10-03T05:28:12.282Z,83.30
2017-10-03T05:33:14.857Z,83.70
2017-10-03T05:38:17.418Z,84.10
2017-10-03T05:43:19.991Z,83.60
2017-10-03T05:48:22.614Z,85.20
2017-10-03T05:53:25.166Z,85.70
2017-10-03T05:58:27.725Z,85.40
2017-10-03T06:03:31.044Z,86.20
2017-10-03T06:08:33.628Z,86.20
2017-10-03T06:13:36.188Z,85.40
2017-10-03T06:18:39.526Z,84.00
2017-10-03T06:23:42.078Z,83.90
2017-10-03T06:28:44.631Z,83.50
2017-10-03T06:33:47.224Z,83.10
2017-10-03T06:38:49.779Z,82.80
2017-10-03T06:43:52.322Z,82.30
2017-10-03T06:48:54.985Z,81.90
2017-10-03T06:53:57.564Z,81.50
2017-10-03T06:59:00.129Z,81.70
2017-10-03T07:04:02.741Z,81.60
2017-10-03T07:09:06.086Z,81.60
2017-10-03T07:14:08.670Z,81.60
2017-10-03T07:19:11.227Z,81.40
2017-10-03T07:24:19.108Z,81.50
2017-10-03T07:29:21.670Z,81.60
2017-10-03T07:34:24.979Z,81.30
2017-10-03T07:39:28.317Z,81.00
2017-10-03T07:44:31.831Z,81.00
2017-10-03T07:49:34.379Z,81.00
2017-10-03T07:54:36.938Z,81.20
2017-10-03T07:59:39.488Z,81.30
2017-10-03T08:04:42.092Z,81.30
2017-10-03T08:09:45.426Z,81.20
2017-10-03T08:14:48.003Z,81.20
2017-10-03T08:19:51.370Z,81.10
2017-10-03T08:24:53.987Z,81.00
2017-10-03T08:29:56.586Z,80.80
2017-10-03T08:34:59.146Z,80.80
2017-10-03T08:40:01.699Z,80.70
2017-10-03T08:45:04.257Z,80.50
2017-10-03T08:50:07.614Z,80.50
2017-10-03T08:55:10.176Z,80.40
2017-10-03T09:00:13.485Z,79.60
2017-10-03T09:05:16.047Z,79.70
2017-10-03T09:10:18.622Z,79.70
2017-10-03T09:15:21.199Z,79.70
2017-10-03T09:20:23.774Z,79.70
2017-10-03T09:25:27.156Z,79.70
2017-10-03T09:30:29.748Z,79.70
2017-10-03T09:35:32.399Z,79.60
2017-10-03T09:40:35.752Z,79.90
2017-10-03T09:45:38.300Z,80.60
2017-10-03T09:50:40.959Z,79.60
2017-10-03T09:55:43.519Z,79.60
2017-10-03T10:00:46.880Z,79.60
2017-10-03T10:05:49.451Z,79.60
2017-10-03T10:10:52.035Z,79.40
2017-10-03T10:15:55.369Z,79.10
2017-10-03T10:20:57.962Z,79.00
2017-10-03T10:26:00.538Z,79.00
2017-10-03T10:31:03.098Z,79.30
2017-10-03T10:36:05.666Z,79.50
2017-10-03T10:41:08.250Z,79.80
2017-10-03T10:46:11.575Z,79.60
2017-10-03T10:51:14.231Z,79.60
2017-10-03T10:56:16.827Z,79.40
2017-10-03T11:01:19.371Z,78.80
2017-10-03T11:06:21.933Z,78.90
2017-10-03T11:11:24.493Z,79.20
2017-10-03T11:16:27.071Z,79.20
2017-10-03T11:21:29.662Z,79.10
2017-10-03T11:26:32.990Z,78.90
2017-10-03T11:31:35.551Z,79.00
2017-10-03T11:36:38.174Z,79.10
2017-10-03T11:41:41.548Z,79.20
2017-10-03T11:46:44.278Z,79.20
2017-10-03T11:51:46.870Z,79.00
2017-10-03T11:56:49.471Z,79.10
2017-10-03T12:01:52.049Z,78.00
2017-10-03T12:06:54.614Z,78.10
2017-10-03T12:11:57.955Z,76.70
2017-10-03T12:17:00.546Z,76.60
2017-10-03T12:22:03.102Z,76.50
2017-10-03T12:27:06.423Z,75.60
2017-10-03T12:32:09.058Z,75.50
2017-10-03T12:37:11.651Z,75.90
2017-10-03T12:42:14.240Z,74.50
2017-10-03T12:47:16.811Z,73.10
2017-10-03T12:52:20.208Z,73.50
2017-10-03T12:57:22.778Z,73.50
2017-10-03T13:02:25.358Z,71.60
2017-10-03T13:07:28.678Z,71.00
2017-10-03T13:12:31.224Z,71.00
2017-10-03T13:17:33.794Z,70.90
2017-10-03T13:22:36.350Z,71.60
2017-10-03T13:27:38.923Z,71.50
2017-10-03T13:32:41.520Z,71.40
2017-10-03T13:37:44.074Z,70.80
2017-10-03T13:42:46.641Z,70.30
2017-10-03T13:47:49.198Z,70.60
2017-10-03T13:52:52.234Z,70.60
2017-10-03T13:57:55.695Z,70.40
2017-10-03T14:02:58.269Z,70.40
2017-10-03T14:08:01.622Z,70.60
2017-10-03T14:13:04.187Z,70.60
2017-10-03T14:18:06.740Z,70.60
2017-10-03T14:23:09.277Z,70.40
2017-10-03T14:28:12.638Z,68.50
2017-10-03T14:33:15.203Z,68.50
2017-10-03T14:38:17.839Z,69.00
2017-10-03T14:43:21.227Z,69.30
2017-10-03T14:48:23.815Z,69.30
2017-10-03T14:53:27.171Z,69.10
2017-10-03T14:58:29.762Z,69.10
2017-10-03T15:03:32.335Z,69.80
2017-10-03T15:08:34.935Z,69.60
2017-10-03T15:13:37.552Z,70.00
2017-10-03T15:18:40.082Z,69.90
2017-10-03T15:23:42.714Z,70.10
2017-10-03T15:28:45.283Z,70.30
2017-10-03T15:33:47.888Z,70.50
2017-10-03T15:38:50.451Z,70.80
2017-10-03T15:43:53.014Z,70.60
2017-10-03T15:48:55.562Z,70.30
2017-10-03T15:53:58.105Z,70.60
2017-10-03T15:59:00.662Z,70.60
2017-10-03T16:04:03.268Z,70.60
2017-10-03T16:14:21.796Z,70.60
2017-10-03T16:19:25.220Z,70.20
2017-10-03T16:24:27.833Z,70.30
2017-10-03T16:29:31.145Z,70.40
2017-10-03T16:34:34.489Z,71.20
2017-10-03T16:39:37.058Z,70.60
2017-10-03T16:44:39.641Z,70.60
2017-10-03T16:49:42.235Z,70.90
2017-10-03T16:54:44.819Z,71.10
2017-10-03T16:59:47.431Z,71.30
2017-10-03T17:04:50.009Z,71.50
2017-10-03T17:09:52.573Z,71.60
2017-10-03T17:14:55.966Z,71.70
2017-10-03T17:19:58.558Z,71.70
2017-10-03T17:25:01.176Z,72.00
2017-10-03T17:30:03.774Z,72.10
2017-10-03T17:35:06.365Z,72.10
2017-10-03T17:40:09.054Z,72.10
2017-10-03T17:45:11.624Z,72.20
2017-10-03T17:50:14.194Z,72.20
2017-10-03T17:55:17.753Z,72.40
2017-10-03T18:00:20.476Z,72.40
2017-10-03T18:05:23.056Z,72.60
2017-10-03T18:10:25.639Z,72.70
2017-10-03T18:15:28.223Z,72.80
2017-10-03T18:20:30.780Z,72.80
2017-10-03T18:25:33.375Z,72.80
2017-10-03T18:30:35.958Z,72.80
2017-10-03T18:35:38.819Z,72.70
2017-10-03T18:40:41.436Z,72.70
2017-10-03T18:45:44.021Z,72.60
2017-10-03T18:50:46.613Z,72.70
2017-10-03T18:55:49.275Z,72.70
2017-10-03T19:00:51.882Z,72.80
2017-10-03T19:05:54.484Z,72.80
2017-10-03T19:10:57.083Z,72.80
2017-10-03T19:15:59.910Z,72.80
2017-10-03T19:21:03.237Z,73.00
2017-10-03T19:26:05.851Z,73.00
2017-10-03T19:31:08.439Z,73.10
2017-10-03T19:36:11.194Z,73.30
2017-10-03T19:41:13.750Z,73.40
2017-10-03T19:46:16.286Z,73.30
2017-10-03T19:51:18.888Z,73.20
2017-10-03T19:56:21.560Z,73.20
2017-10-03T20:01:24.165Z,73.30
2017-10-03T20:06:26.756Z,73.30
2017-10-03T20:11:29.311Z,73.00
2017-10-03T20:16:31.934Z,73.00
2017-10-03T20:21:34.461Z,73.20
2017-10-03T20:26:37.034Z,73.20
2017-10-03T20:31:39.692Z,73.00
2017-10-03T20:36:42.256Z,73.00
2017-10-03T20:41:44.867Z,73.10
2017-10-03T20:46:48.229Z,73.00
2017-10-03T20:51:51.586Z,72.90
2017-10-03T20:56:54.161Z,72.90
2017-10-03T21:01:56.789Z,72.90
2017-10-03T21:06:59.373Z,73.30
2017-10-03T21:12:01.961Z,73.20
2017-10-03T21:17:04.590Z,74.00
2017-10-03T21:22:07.161Z,73.20
2017-10-03T21:27:09.696Z,73.20
2017-10-03T21:32:12.262Z,73.40
2017-10-03T21:37:14.839Z,73.60
2017-10-03T21:42:29.478Z,73.80
2017-10-03T21:47:32.059Z,74.10
2017-10-03T21:52:34.634Z,73.90
2017-10-03T21:57:37.230Z,73.90
2017-10-03T22:02:39.820Z,74.40
2017-10-03T22:07:42.454Z,74.70
2017-10-03T22:12:45.055Z,74.60
2017-10-03T22:17:47.637Z,74.60
2017-10-03T22:22:50.239Z,75.10
2017-10-03T22:27:52.841Z,74.80
2017-10-03T22:32:57.279Z,74.60
2017-10-03T22:37:59.835Z,74.40
2017-10-03T22:43:02.427Z,74.50
2017-10-03T22:48:05.046Z,74.90
2017-10-03T22:53:07.604Z,74.60
2017-10-03T22:58:10.180Z,74.50
2017-10-03T23:03:12.732Z,74.80
2017-10-03T23:08:15.290Z,74.80
2017-10-03T23:13:17.908Z,74.80
2017-10-03T23:18:20.453Z,74.80
2017-10-03T23:23:23.040Z,74.60
2017-10-03T23:28:25.598Z,74.70
2017-10-03T23:33:28.160Z,74.30
2017-10-03T23:38:30.723Z,74.40
2017-10-03T23:43:33.294Z,74.60
2017-10-03T23:48:35.862Z,74.50
2017-10-03T23:53:38.535Z,74.30
2017-10-03T23:58:41.086Z,74.70
